Aidamar — ICSJ — position and weather

sailwx.info

Track history (hours):
 
Tides and Currents Weather Stations Pressure Air Temp Water Temp Dewpoint Dewpoint Depression Visibility Wind Speed Wind Dir Waves Ship Positions

Aidamar

Last reported at 2016-Jul-29 21:34 UTC. Time now 2016-Jul-29 21:42 UTC.
Position N 55°03' E 014°02'.

Length 253 m; draft 7.3 m.

Type: Passenger vessel. MMSI: 247312900.

Date/timePositionNaut miles runAvg speedWind from/ knotsBaromVisibWave heightAir tempDewpointWater temp
2016-Jul-29 21:34N 55°03' E 014°02'1515.4
2016-Jul-29 20:34N 55°14' E 014°20'1615.8
2016-Jul-29 19:33N 55°27' E 014°38'1515.5
2016-Jul-29 18:33N 55°35' E 015°01'1515.1
2016-Jul-29 17:34N 55°42' E 015°24'237 9.8
2016-Jul-28 17:29N 59°21' E 018°13'4 3.8
2016-Jul-28 16:27N 59°19' E 018°06'0 0.0
2016-Jul-28 14:14N 59°19' E 018°06'0 0.0
2016-Jul-28 11:33N 59°19' E 018°06'0 0.0
2016-Jul-28 07:25N 59°19' E 018°06'7 7.9
2016-Jul-28 06:31N 59°23' E 018°18'8910.7
2016-Jul-27 22:12N 59°32' E 021°13'1014.2
2016-Jul-27 21:29N 59°30' E 021°32'5014.6
2016-Jul-27 18:04N 59°35' E 023°10'1018.4
2016-Jul-27 17:33N 59°38' E 023°28'1918.9
2016-Jul-27 16:34N 59°46' E 024°02'1918.3
2016-Jul-27 15:33N 59°53' E 024°36'1514.4
2016-Jul-27 14:29N 60°06' E 024°54'7 0.7
2016-Jul-27 04:06N 59°59' E 024°58'2314.8
2016-Jul-27 02:31N 59°55' E 025°44'1818.8
2016-Jul-27 01:34N 59°59' E 026°19'1818.3
2016-Jul-27 00:34N 60°00' E 026°56'1515.1
2016-Jul-26 23:33N 60°05' E 027°24'1615.7
2016-Jul-26 22:33N 60°11' E 027°54'1616.4
2016-Jul-26 21:33N 60°05' E 028°25'1616.2
2016-Jul-26 20:33N 60°02' E 028°57'1615.0
2016-Jul-26 19:29N 60°01' E 029°29'1010.8
2016-Jul-26 18:33N 59°58' E 029°48'9 9.3
2016-Jul-26 17:33N 59°57' E 030°06'3 2.5
2016-Jul-26 16:32N 59°57' E 030°11'0 0.0
2016-Jul-26 15:33N 59°57' E 030°11'0 0.0
2016-Jul-26 14:33N 59°57' E 030°11'0 0.0
2016-Jul-26 13:31N 59°57' E 030°11'0 0.0
2016-Jul-26 12:32N 59°57' E 030°11'0 0.0
2016-Jul-26 11:31N 59°57' E 030°11'0 0.0
2016-Jul-26 10:32N 59°57' E 030°11'0 0.0
2016-Jul-26 09:33N 59°57' E 030°11'0 0.0
2016-Jul-26 08:31N 59°57' E 030°11'0 0.0
2016-Jul-26 07:31N 59°57' E 030°11'0 0.0
2016-Jul-26 06:33N 59°57' E 030°11'0 0.0
2016-Jul-26 05:27N 59°57' E 030°11'0 0.0
2016-Jul-26 04:32N 59°57' E 030°11'3 2.9
2016-Jul-26 03:33N 59°56' E 030°06'1010.5
2016-Jul-26 02:33N 59°59' E 029°45'1211.4
2016-Jul-26 01:33N 60°02' E 029°23'1515.0
2016-Jul-26 00:32N 60°02' E 028°52'1313.7
2016-Jul-25 23:33N 60°03' E 028°26'1515.2
2016-Jul-25 22:33N 60°10' E 027°58'1515.4
2016-Jul-25 21:33N 60°06' E 027°28'1615.8
2016-Jul-25 20:32N 59°58' E 026°59'1616.3
2016-Jul-25 19:34N 59°58' E 026°27'1616.5
2016-Jul-25 18:34N 59°53' E 025°56'3416.5
2016-Jul-25 16:28N 59°42' E 024°51'1212.4
2016-Jul-25 15:32N 59°31' E 024°45'4 0.4
2016-Jul-25 06:03N 59°27' E 024°46'0 0.2
2016-Jul-25 05:29N 59°27' E 024°46'8 7.8
2016-Jul-25 04:30N 59°30' E 024°32'1413.8
2016-Jul-25 03:29N 59°30' E 024°04'1414.5
2016-Jul-25 02:33N 59°30' E 023°37'1514.9
2016-Jul-25 01:31N 59°29' E 023°07'1414.9
2016-Jul-25 00:33N 59°25' E 022°40'1514.7
2016-Jul-24 23:33N 59°17' E 022°16'31714.9
2016-Jul-24 02:22N 55°36' E 015°16'1316.2
2016-Jul-24 01:33N 55°29' E 014°56'1616.1
2016-Jul-24 00:33N 55°20' E 014°33'1616.3
2016-Jul-23 23:33N 55°07' E 014°15'1615.7
2016-Jul-23 22:33N 54°58' E 013°52'1616.2
2016-Jul-23 21:34N 54°53' E 013°26'1615.9
2016-Jul-23 20:33N 54°48' E 012°60'1514.9
2016-Jul-23 19:33N 54°42' E 012°36'1413.6
2016-Jul-23 18:34N 54°33' E 012°18'1414.2
2016-Jul-23 17:33N 54°21' E 012°07'1010.1
2016-Jul-23 16:33N 54°11' E 012°06'0 0.0
2016-Jul-23 15:33N 54°11' E 012°06'0 0.0
2016-Jul-23 14:30N 54°11' E 012°06'0 0.0
2016-Jul-23 13:30N 54°11' E 012°06'0 0.0
2016-Jul-23 12:18N 54°11' E 012°06'0 0.0
2016-Jul-23 11:30N 54°11' E 012°06'0 0.0
2016-Jul-23 10:33N 54°11' E 012°06'0 0.0
2016-Jul-23 09:33N 54°11' E 012°06'0 0.0
2016-Jul-23 08:33N 54°11' E 012°06'0 0.0
2016-Jul-23 07:33N 54°11' E 012°06'0 0.0
2016-Jul-23 06:32N 54°11' E 012°06'0 0.1
2016-Jul-23 04:34N 54°11' E 012°06'10 9.8
2016-Jul-23 03:34N 54°20' E 011°60'1211.7
2016-Jul-23 02:33N 54°30' E 012°11'1312.9
2016-Jul-23 01:33N 54°40' E 012°24'1414.0
2016-Jul-23 00:33N 54°48' E 012°44'1515.0
2016-Jul-22 23:33N 54°53' E 013°08'1514.8
2016-Jul-22 22:33N 54°58' E 013°33'1514.7
2016-Jul-22 21:34N 55°02' E 013°57'1414.2
2016-Jul-22 20:34N 55°12' E 014°16'1514.9
2016-Jul-22 19:34N 55°23' E 014°32'1514.7
2016-Jul-22 18:33N 55°32' E 014°54'1615.6
2016-Jul-22 17:34N 55°40' E 015°17'2316.1
2016-Jul-22 16:09N 55°52' E 015°51'220 9.7
2016-Jul-21 17:33N 59°19' E 018°05'1 0.7
2016-Jul-21 16:32N 59°19' E 018°06'0 0.0
2016-Jul-21 15:26N 59°19' E 018°06'0 0.0
2016-Jul-21 14:32N 59°19' E 018°06'0 0.0
2016-Jul-21 09:28N 59°19' E 018°06'0 0.0
2016-Jul-21 07:29N 59°19' E 018°06'39 8.8
2016-Jul-21 03:04N 59°43' E 019°07'815.4
2016-Jul-21 02:33N 59°46' E 019°21'5814.3
2016-Jul-20 22:31N 59°33' E 021°12'1919.9
2016-Jul-20 21:33N 59°29' E 021°49'1919.1
2016-Jul-20 20:33N 59°30' E 022°27'2319.8
2016-Jul-20 19:23N 59°35' E 023°11'1719.8
2016-Jul-20 18:33N 59°41' E 023°42'1413.9
2016-Jul-20 17:31N 59°47' E 024°08'7 7.0
2016-Jul-20 16:30N 59°49' E 024°21'1716.6
2016-Jul-20 15:28N 59°58' E 024°50'6 0.5
2016-Jul-20 04:33N 60°03' E 024°54'1211.6
2016-Jul-20 03:33N 59°56' E 025°12'3516.7
2016-Jul-20 01:27N 59°59' E 026°21'1716.4
2016-Jul-20 00:25N 60°00' E 026°55'1314.5
2016-Jul-19 23:33N 60°04' E 027°19'1716.7
2016-Jul-19 22:34N 60°11' E 027°49'  
Track history (hours):
 
Tides and Currents Weather Stations Pressure Air Temp Water Temp Dewpoint Dewpoint Depression Visibility Wind Speed Wind Dir Waves Ship Positions

Aidamar

Last reported at 2016-Jul-29 21:34 UTC. Time now 2016-Jul-29 21:42 UTC.
Position N 55°03' E 014°02'.

Length 253 m; draft 7.3 m.

Type: Passenger vessel. MMSI: 247312900.

Date/timePositionNaut miles runAvg speedWind from/ knotsBaromVisibWave heightAir tempDewpointWater temp
2016-Jul-29 21:34N 55°03' E 014°02'1515.4
2016-Jul-29 20:34N 55°14' E 014°20'1615.8
2016-Jul-29 19:33N 55°27' E 014°38'1515.5
2016-Jul-29 18:33N 55°35' E 015°01'1515.1
2016-Jul-29 17:34N 55°42' E 015°24'237 9.8
2016-Jul-28 17:29N 59°21' E 018°13'4 3.8
2016-Jul-28 16:27N 59°19' E 018°06'0 0.0
2016-Jul-28 14:14N 59°19' E 018°06'0 0.0
2016-Jul-28 11:33N 59°19' E 018°06'0 0.0
2016-Jul-28 07:25N 59°19' E 018°06'7 7.9
2016-Jul-28 06:31N 59°23' E 018°18'8910.7
2016-Jul-27 22:12N 59°32' E 021°13'1014.2
2016-Jul-27 21:29N 59°30' E 021°32'5014.6
2016-Jul-27 18:04N 59°35' E 023°10'1018.4
2016-Jul-27 17:33N 59°38' E 023°28'1918.9
2016-Jul-27 16:34N 59°46' E 024°02'1918.3
2016-Jul-27 15:33N 59°53' E 024°36'1514.4
2016-Jul-27 14:29N 60°06' E 024°54'7 0.7
2016-Jul-27 04:06N 59°59' E 024°58'2314.8
2016-Jul-27 02:31N 59°55' E 025°44'1818.8
2016-Jul-27 01:34N 59°59' E 026°19'1818.3
2016-Jul-27 00:34N 60°00' E 026°56'1515.1
2016-Jul-26 23:33N 60°05' E 027°24'1615.7
2016-Jul-26 22:33N 60°11' E 027°54'1616.4
2016-Jul-26 21:33N 60°05' E 028°25'1616.2
2016-Jul-26 20:33N 60°02' E 028°57'1615.0
2016-Jul-26 19:29N 60°01' E 029°29'1010.8
2016-Jul-26 18:33N 59°58' E 029°48'9 9.3
2016-Jul-26 17:33N 59°57' E 030°06'3 2.5
2016-Jul-26 16:32N 59°57' E 030°11'0 0.0
2016-Jul-26 15:33N 59°57' E 030°11'0 0.0
2016-Jul-26 14:33N 59°57' E 030°11'0 0.0
2016-Jul-26 13:31N 59°57' E 030°11'0 0.0
2016-Jul-26 12:32N 59°57' E 030°11'0 0.0
2016-Jul-26 11:31N 59°57' E 030°11'0 0.0
2016-Jul-26 10:32N 59°57' E 030°11'0 0.0
2016-Jul-26 09:33N 59°57' E 030°11'0 0.0
2016-Jul-26 08:31N 59°57' E 030°11'0 0.0
2016-Jul-26 07:31N 59°57' E 030°11'0 0.0
2016-Jul-26 06:33N 59°57' E 030°11'0 0.0
2016-Jul-26 05:27N 59°57' E 030°11'0 0.0
2016-Jul-26 04:32N 59°57' E 030°11'3 2.9
2016-Jul-26 03:33N 59°56' E 030°06'1010.5
2016-Jul-26 02:33N 59°59' E 029°45'1211.4
2016-Jul-26 01:33N 60°02' E 029°23'1515.0
2016-Jul-26 00:32N 60°02' E 028°52'1313.7
2016-Jul-25 23:33N 60°03' E 028°26'1515.2
2016-Jul-25 22:33N 60°10' E 027°58'1515.4
2016-Jul-25 21:33N 60°06' E 027°28'1615.8
2016-Jul-25 20:32N 59°58' E 026°59'1616.3
2016-Jul-25 19:34N 59°58' E 026°27'1616.5
2016-Jul-25 18:34N 59°53' E 025°56'3416.5
2016-Jul-25 16:28N 59°42' E 024°51'1212.4
2016-Jul-25 15:32N 59°31' E 024°45'4 0.4
2016-Jul-25 06:03N 59°27' E 024°46'0 0.2
2016-Jul-25 05:29N 59°27' E 024°46'8 7.8
2016-Jul-25 04:30N 59°30' E 024°32'1413.8
2016-Jul-25 03:29N 59°30' E 024°04'1414.5
2016-Jul-25 02:33N 59°30' E 023°37'1514.9
2016-Jul-25 01:31N 59°29' E 023°07'1414.9
2016-Jul-25 00:33N 59°25' E 022°40'1514.7
2016-Jul-24 23:33N 59°17' E 022°16'31714.9
2016-Jul-24 02:22N 55°36' E 015°16'1316.2
2016-Jul-24 01:33N 55°29' E 014°56'1616.1
2016-Jul-24 00:33N 55°20' E 014°33'1616.3
2016-Jul-23 23:33N 55°07' E 014°15'1615.7
2016-Jul-23 22:33N 54°58' E 013°52'1616.2
2016-Jul-23 21:34N 54°53' E 013°26'1615.9
2016-Jul-23 20:33N 54°48' E 012°60'1514.9
2016-Jul-23 19:33N 54°42' E 012°36'1413.6
2016-Jul-23 18:34N 54°33' E 012°18'1414.2
2016-Jul-23 17:33N 54°21' E 012°07'1010.1
2016-Jul-23 16:33N 54°11' E 012°06'0 0.0
2016-Jul-23 15:33N 54°11' E 012°06'0 0.0
2016-Jul-23 14:30N 54°11' E 012°06'0 0.0
2016-Jul-23 13:30N 54°11' E 012°06'0 0.0
2016-Jul-23 12:18N 54°11' E 012°06'0 0.0
2016-Jul-23 11:30N 54°11' E 012°06'0 0.0
2016-Jul-23 10:33N 54°11' E 012°06'0 0.0
2016-Jul-23 09:33N 54°11' E 012°06'0 0.0
2016-Jul-23 08:33N 54°11' E 012°06'0 0.0
2016-Jul-23 07:33N 54°11' E 012°06'0 0.0
2016-Jul-23 06:32N 54°11' E 012°06'0 0.1
2016-Jul-23 04:34N 54°11' E 012°06'10 9.8
2016-Jul-23 03:34N 54°20' E 011°60'1211.7
2016-Jul-23 02:33N 54°30' E 012°11'1312.9
2016-Jul-23 01:33N 54°40' E 012°24'1414.0
2016-Jul-23 00:33N 54°48' E 012°44'1515.0
2016-Jul-22 23:33N 54°53' E 013°08'1514.8
2016-Jul-22 22:33N 54°58' E 013°33'1514.7
2016-Jul-22 21:34N 55°02' E 013°57'1414.2
2016-Jul-22 20:34N 55°12' E 014°16'1514.9
2016-Jul-22 19:34N 55°23' E 014°32'1514.7
2016-Jul-22 18:33N 55°32' E 014°54'1615.6
2016-Jul-22 17:34N 55°40' E 015°17'2316.1
2016-Jul-22 16:09N 55°52' E 015°51'220 9.7
2016-Jul-21 17:33N 59°19' E 018°05'1 0.7
2016-Jul-21 16:32N 59°19' E 018°06'0 0.0
2016-Jul-21 15:26N 59°19' E 018°06'0 0.0
2016-Jul-21 14:32N 59°19' E 018°06'0 0.0
2016-Jul-21 09:28N 59°19' E 018°06'0 0.0
2016-Jul-21 07:29N 59°19' E 018°06'39 8.8
2016-Jul-21 03:04N 59°43' E 019°07'815.4
2016-Jul-21 02:33N 59°46' E 019°21'5814.3
2016-Jul-20 22:31N 59°33' E 021°12'1919.9
2016-Jul-20 21:33N 59°29' E 021°49'1919.1
2016-Jul-20 20:33N 59°30' E 022°27'2319.8
2016-Jul-20 19:23N 59°35' E 023°11'1719.8
2016-Jul-20 18:33N 59°41' E 023°42'1413.9
2016-Jul-20 17:31N 59°47' E 024°08'7 7.0
2016-Jul-20 16:30N 59°49' E 024°21'1716.6
2016-Jul-20 15:28N 59°58' E 024°50'6 0.5
2016-Jul-20 04:33N 60°03' E 024°54'1211.6
2016-Jul-20 03:33N 59°56' E 025°12'3516.7
2016-Jul-20 01:27N 59°59' E 026°21'1716.4
2016-Jul-20 00:25N 60°00' E 026°55'1314.5
2016-Jul-19 23:33N 60°04' E 027°19'1716.7
2016-Jul-19 22:34N 60°11' E 027°49'  

Dump ship's entire track history